Time;durP1;ratioP1;P1;durP2;ratioP2;P2;SDS_P1;SDS_P2;PMS_P1;PMS_P2;Temp;Humidity;BMP_temperature;BMP_pressure;BME280_temperature;BME280_humidity;BME280_pressure;Samples;Min_cycle;Max_cycle;Signal;HPM_P1;HPM_P2
2022/12/17 13:07:00;;;;;;;14.30;8.35;;;;;;;;;;5030356;28;20049;-76
2022/12/17 13:09:32;;;;;;;13.13;8.10;;;;;;;;;;5030282;28;20053;-76
2022/12/17 13:12:20;;;;;;;12.00;8.05;;;12.10;54.00;;;;;;5030639;28;20053;-76
2022/12/17 13:14:52;;;;;;;12.57;8.15;;;12.10;54.10;;;;;;5029839;28;20041;-76
2022/12/17 13:17:37;;;;;;;16.73;8.07;;;12.10;54.20;;;;;;5030687;28;20068;-76
2022/12/17 13:20:19;;;;;;;12.00;7.72;;;;;;;;;;5030112;28;20057;-75
2022/12/17 13:22:49;;;;;;;13.43;8.80;;;;;;;;;;5028125;28;20057;-75
2022/12/17 13:25:17;;;;;;;11.95;7.95;;;;;;;;;;5030206;28;20504;-75
2022/12/17 13:27:45;;;;;;;11.93;7.82;;;;;;;;;;5027617;28;20132;-75
2022/12/17 13:30:20;;;;;;;13.93;8.30;;;;;;;;;;5030511;28;20104;-76
2022/12/17 13:32:48;;;;;;;13.60;8.90;;;12.00;55.00;;;;;;5031780;28;20236;-75
2022/12/17 13:35:18;;;;;;;12.75;8.30;;;;;;;;;;5041142;28;20049;-75
2022/12/17 13:37:55;;;;;;;12.40;7.82;;;11.90;54.30;;;;;;5048189;28;20064;-75
2022/12/17 13:40:32;;;;;;;11.93;7.90;;;11.80;55.10;;;;;;5061110;28;20045;-75
2022/12/17 13:42:59;;;;;;;13.70;8.77;;;;;;;;;;5045177;28;20057;-76
2022/12/17 13:45:27;;;;;;;16.05;8.82;;;11.80;55.30;;;;;;5049747;28;20137;-76
2022/12/17 13:47:55;;;;;;;13.63;7.93;;;;;;;;;;5051040;28;20274;-76
2022/12/17 13:50:22;;;;;;;14.52;8.55;;;;;;;;;;5039344;28;20049;-76
2022/12/17 13:52:49;;;;;;;16.10;9.10;;;;;;;;;;5029577;28;20410;-76
2022/12/17 13:55:20;;;;;;;14.57;8.75;;;11.70;54.10;;;;;;5030311;28;20053;-77
2022/12/17 13:57:48;;;;;;;13.85;8.38;;;;;;;;;;5030617;28;20057;-75
2022/12/17 14:00:19;;;;;;;11.57;8.20;;;;;;;;;;5030435;28;20051;-76
2022/12/17 14:02:47;;;;;;;13.82;8.40;;;11.60;54.20;;;;;;5029698;28;20065;-77
2022/12/17 14:05:22;;;;;;;12.25;7.97;;;;;;;;;;5030042;28;20568;-77
2022/12/17 14:07:49;;;;;;;12.38;7.53;;;;;;;;;;5030303;28;20346;-77
2022/12/17 14:10:16;;;;;;;12.73;7.78;;;;;;;;;;5029583;28;20053;-77
2022/12/17 14:12:44;;;;;;;15.75;8.48;;;;;;;;;;5029788;28;20061;-76
2022/12/17 14:15:24;;;;;;;13.75;7.97;;;;;;;;;;5030815;28;20132;-80
2022/12/17 14:17:52;;;;;;;12.63;8.10;;;11.60;55.90;;;;;;5029892;28;20045;-77
2022/12/17 14:20:20;;;;;;;11.05;7.40;;;;;;;;;;5029697;28;20056;-76
2022/12/17 14:22:47;;;;;;;14.80;8.38;;;;;;;;;;5029541;28;20117;-77
2022/12/17 14:25:15;;;;;;;12.35;7.63;;;;;;;;;;5029212;28;20128;-77
2022/12/17 14:27:42;;;;;;;49.60;19.30;;;;;;;;;;5028988;28;20061;-76
2022/12/17 14:30:20;;;;;;;21.95;13.60;;;;;;;;;;5046087;28;20537;-77
2022/12/17 14:32:47;;;;;;;13.20;7.80;;;;;;;;;;5052601;28;20052;-77
2022/12/17 14:35:24;;;;;;;11.25;7.38;;;;;;;;;;5047120;28;20132;-76
2022/12/17 14:37:51;;;;;;;15.68;8.55;;;;;;;;;;5050092;28;20053;-76
2022/12/17 14:40:18;;;;;;;12.35;7.82;;;;;;;;;;5049070;28;20045;-76
2022/12/17 14:42:45;;;;;;;11.88;7.68;;;;;;;;;;5033394;28;20053;-76
2022/12/17 14:45:22;;;;;;;14.75;7.78;;;11.80;53.90;;;;;;5033247;28;20057;-76
2022/12/17 14:47:52;;;;;;;12.60;7.93;;;;;;;;;;5032563;28;20056;-76
2022/12/17 14:50:31;;;;;;;10.82;7.50;;;11.80;55.70;;;;;;5032799;28;20406;-77
2022/12/17 14:52:59;;;;;;;12.68;7.88;;;;;;;;;;5012719;28;20109;-76
2022/12/17 14:55:27;;;;;;;11.68;7.45;;;;;;;;;;5024609;28;20567;-77
2022/12/17 14:57:55;;;;;;;12.57;7.82;;;;;;;;;;5033160;28;20085;-76
2022/12/17 15:00:22;;;;;;;11.32;7.28;;;;;;;;;;5032828;28;20061;-76
2022/12/17 15:02:51;;;;;;;12.32;7.47;;;;;;;;;;5032582;28;20061;-76
2022/12/17 15:05:18;;;;;;;12.38;7.57;;;;;;;;;;5032826;28;20136;-76
2022/12/17 15:07:46;;;;;;;13.07;7.25;;;11.90;55.80;;;;;;5032822;28;20076;-75
2022/12/17 15:10:15;;;;;;;12.82;7.93;;;;;;;;;;5032716;28;20071;-75
2022/12/17 15:12:42;;;;;;;11.43;7.00;;;12.00;54.30;;;;;;5032448;28;20140;-76
2022/12/17 15:15:12;;;;;;;11.95;7.18;;;;;;;;;;5032617;28;20608;-76
2022/12/17 15:17:39;;;;;;;11.68;6.97;;;;;;;;;;5032607;28;20064;-76
2022/12/17 15:20:08;;;;;;;13.13;7.50;;;;;;;;;;5032936;28;20057;-76
2022/12/17 15:22:36;;;;;;;12.07;6.60;;;;;;;;;;5033130;28;20092;-75
2022/12/17 15:25:05;;;;;;;13.00;7.40;;;12.10;55.90;;;;;;5033050;28;20060;-76
2022/12/17 15:27:32;;;;;;;12.80;6.72;;;;;;;;;;5032524;28;20079;-76
2022/12/17 15:29:59;;;;;;;12.30;6.75;;;;;;;;;;5032351;28;20136;-76
2022/12/17 15:32:26;;;;;;;11.77;6.72;;;;;;;;;;5032168;28;20057;-75
2022/12/17 15:34:53;;;;;;;10.65;6.53;;;;;;;;;;5032420;28;20045;-76
2022/12/17 15:37:20;;;;;;;10.65;6.35;;;;;;;;;;5038392;28;20049;-75
2022/12/17 15:39:47;;;;;;;11.55;6.70;;;;;;;;;;5046136;28;20135;-76
2022/12/17 15:45:00;;;;;;;11.35;6.82;;;;;;;;;;5051970;28;20041;-75
2022/12/17 15:47:27;;;;;;;11.45;6.75;;;;;;;;;;5051280;28;20053;-76
2022/12/17 15:49:54;;;;;;;10.98;6.45;;;;;;;;;;5051984;28;20123;-76
2022/12/17 15:52:21;;;;;;;13.10;7.15;;;;;;;;;;5045599;28;20052;-76
2022/12/17 15:54:49;;;;;;;13.38;7.53;;;;;;;;;;5051535;28;20063;-75
2022/12/17 15:57:17;;;;;;;12.70;7.20;;;;;;;;;;5045726;28;20060;-75
2022/12/17 15:59:44;;;;;;;13.10;7.10;;;;;;;;;;5045702;28;20053;-76
2022/12/17 16:02:11;;;;;;;14.23;7.43;;;;;;;;;;5051438;28;20053;-76
2022/12/17 16:04:39;;;;;;;12.25;6.80;;;;;;;;;;5051187;28;20059;-76
2022/12/17 16:07:06;;;;;;;12.68;7.50;;;;;;;;;;5051311;28;20057;-77
2022/12/17 16:09:33;;;;;;;12.95;7.88;;;;;;;;;;5044671;28;20052;-76
2022/12/17 16:12:01;;;;;;;11.40;6.53;;;;;;;;;;5030528;28;20057;-77
2022/12/17 16:14:29;;;;;;;12.95;7.22;;;;;;;;;;5040364;28;20049;-75
2022/12/17 16:16:56;;;;;;;13.45;7.07;;;;;;;;;;5045376;28;20053;-80
2022/12/17 16:19:23;;;;;;;13.45;6.60;;;;;;;;;;5050826;28;20063;-79
2022/12/17 16:21:50;;;;;;;12.70;7.00;;;;;;;;;;5050991;28;20049;-80
2022/12/17 16:24:17;;;;;;;14.00;7.10;;;;;;;;;;5050884;28;20151;-79
2022/12/17 16:26:44;;;;;;;13.88;7.47;;;;;;;;;;5048548;28;20055;-80
2022/12/17 16:29:11;;;;;;;16.48;8.15;;;;;;;;;;5030833;28;20071;-80
2022/12/17 16:31:40;;;;;;;13.15;7.57;;;;;;;;;;5031843;28;20075;-80
2022/12/17 16:34:08;;;;;;;12.75;7.32;;;;;;;;;;5052228;28;20033;-82
2022/12/17 16:36:35;;;;;;;15.75;7.97;;;;;;;;;;5059444;28;20045;-79
2022/12/17 16:39:03;;;;;;;13.23;8.07;;;;;;;;;;5058308;28;20057;-80
2022/12/17 16:41:30;;;;;;;12.98;7.63;;;;;;;;;;5041678;28;20049;-79
2022/12/17 16:43:57;;;;;;;11.65;6.80;;;;;;;;;;5031448;28;20055;-80
2022/12/17 16:46:26;;;;;;;13.40;7.95;;;12.10;53.90;;;;;;5031639;28;20049;-80
2022/12/17 16:48:54;;;;;;;13.93;7.80;;;;;;;;;;5031716;28;20513;-80
2022/12/17 16:51:21;;;;;;;14.23;7.97;;;;;;;;;;5030795;28;20056;-80
2022/12/17 16:53:48;;;;;;;15.32;7.95;;;;;;;;;;5025165;28;20542;-80
2022/12/17 16:56:16;;;;;;;14.48;7.68;;;;;;;;;;5029137;28;20048;-80
2022/12/17 16:58:43;;;;;;;14.40;8.05;;;;;;;;;;5030391;28;20080;-82
2022/12/17 17:01:10;;;;;;;16.35;8.45;;;;;;;;;;5029698;28;20406;-80
2022/12/17 17:03:39;;;;;;;15.38;8.65;;;;;;;;;;5028884;28;20076;-80
2022/12/17 17:06:07;;;;;;;13.88;8.40;;;;;;;;;;5031931;28;20588;-80
2022/12/17 17:08:35;;;;;;;14.70;8.43;;;;;;;;;;5030414;28;20546;-80
2022/12/17 17:11:07;;;;;;;16.67;8.13;;;;;;;;;;5031412;28;20136;-80
2022/12/17 17:13:34;;;;;;;18.02;8.55;;;;;;;;;;5030584;28;20046;-80
2022/12/17 17:16:01;;;;;;;15.82;8.68;;;;;;;;;;5031128;28;20052;-80
2022/12/17 17:18:29;;;;;;;15.20;8.90;;;;;;;;;;5042246;28;20055;-80
2022/12/17 17:21:12;;;;;;;14.77;8.40;;;;;;;;;;5044005;28;20049;-80
2022/12/17 17:23:40;;;;;;;17.88;8.52;;;;;;;;;;5030081;28;20053;-80
2022/12/17 17:26:07;;;;;;;15.55;9.00;;;;;;;;;;5030811;28;20133;-80
2022/12/17 17:28:34;;;;;;;14.77;8.45;;;;;;;;;;5031216;28;20053;-80
2022/12/17 17:31:01;;;;;;;15.95;9.23;;;;;;;;;;5031224;28;20053;-80
2022/12/17 17:33:29;;;;;;;15.95;9.82;;;;;;;;;;5030833;28;20056;-80
2022/12/17 17:36:02;;;;;;;15.95;9.18;;;;;;;;;;5031632;28;20045;-80
2022/12/17 17:38:29;;;;;;;17.05;9.15;;;;;;;;;;5043047;28;20045;-80
2022/12/17 17:40:58;;;;;;;15.00;8.73;;;;;;;;;;5030877;28;20067;-80
2022/12/17 17:43:25;;;;;;;15.32;9.23;;;;;;;;;;5030653;28;20057;-80
2022/12/17 17:45:52;;;;;;;17.60;10.10;;;;;;;;;;5030955;28;20045;-80
2022/12/17 17:48:19;;;;;;;17.05;9.45;;;;;;;;;;5030774;28;20052;-80
2022/12/17 17:50:57;;;;;;;16.25;9.82;;;;;;;;;;5037392;28;20289;-80
2022/12/17 17:53:24;;;;;;;17.23;9.25;;;;;;;;;;5050600;28;20409;-80
2022/12/17 17:55:51;;;;;;;18.08;9.68;;;;;;;;;;5050588;28;20481;-80
2022/12/17 17:58:19;;;;;;;16.70;9.45;;;;;;;;;;5050650;28;20611;-77
2022/12/17 18:00:46;;;;;;;17.98;9.93;;;;;;;;;;5050014;28;20051;-81
2022/12/17 18:03:14;;;;;;;15.68;9.85;;;;;;;;;;5049784;28;20045;-80
2022/12/17 18:05:42;;;;;;;15.82;9.85;;;;;;;;;;5048838;28;20075;-80
2022/12/17 18:08:09;;;;;;;19.83;9.93;;;;;;;;;;5045545;28;20072;-80
2022/12/17 18:10:36;;;;;;;15.95;9.75;;;;;;;;;;5050650;28;20566;-80
2022/12/17 18:16:01;;;;;;;16.63;10.38;;;;;;;;;;4998296;28;20041;-80
2022/12/17 18:18:28;;;;;;;19.33;10.05;;;;;;;;;;5044907;28;20075;-79
2022/12/17 18:21:02;;;;;;;19.48;11.38;;;;;;;;;;5049420;28;20408;-80
2022/12/17 18:23:29;;;;;;;16.67;10.10;;;;;;;;;;5044814;28;20048;-80
2022/12/17 18:25:56;;;;;;;16.70;9.80;;;;;;;;;;5042403;28;20041;-81
2022/12/17 18:28:23;;;;;;;17.90;10.35;;;;;;;;;;5037378;28;20057;-81
2022/12/17 18:30:50;;;;;;;17.52;10.48;;;;;;;;;;5050188;28;20103;-81
2022/12/17 18:33:19;;;;;;;16.15;10.20;;;;;;;;;;5048791;28;20049;-81
2022/12/17 18:35:46;;;;;;;19.15;10.38;;;;;;;;;;5043348;28;20053;-81
2022/12/17 18:38:13;;;;;;;18.83;10.93;;;;;;;;;;5049059;28;20080;-81
2022/12/17 18:40:40;;;;;;;16.58;10.18;;;;;;;;;;5050967;28;20481;-81
2022/12/17 18:43:23;;;;;;;18.98;10.30;;;;;;;;;;5050185;28;20057;-81
2022/12/17 18:45:50;;;;;;;19.05;11.07;;;;;;;;;;5050030;28;20118;-81
2022/12/17 18:48:17;;;;;;;19.65;11.63;;;;;;;;;;5049949;28;20063;-81
2022/12/17 18:50:45;;;;;;;19.77;11.00;;;;;;;;;;5044425;28;20099;-81
2022/12/17 18:53:12;;;;;;;20.25;11.23;;;;;;;;;;5049800;28;20051;-81
2022/12/17 18:55:40;;;;;;;17.63;11.07;;;;;;;;;;5049977;28;20057;-81
2022/12/17 18:58:07;;;;;;;19.88;12.18;;;;;;;;;;5041775;28;20049;-80
2022/12/17 19:00:34;;;;;;;20.42;12.20;;;;;;;;;;5043197;28;20099;-81
2022/12/17 19:03:03;;;;;;;21.25;12.65;;;;;;;;;;5037783;28;20136;-81
2022/12/17 19:05:30;;;;;;;18.45;11.52;;;;;;;;;;5027236;28;20045;-81
2022/12/17 19:07:58;;;;;;;18.83;11.68;;;;;;;;;;5029821;28;20057;-81
2022/12/17 19:10:25;;;;;;;21.77;12.57;;;;;;;;;;4170344;28;10000053;-81
2022/12/17 19:12:52;;;;;;;21.48;12.25;;;;;;;;;;5029977;28;20056;-81
2022/12/17 19:15:20;;;;;;;20.55;12.38;;;;;;;;;;5030185;28;20053;-81
2022/12/17 19:17:49;;;;;;;24.30;13.07;;;;;;;;;;5032303;28;20065;-81
2022/12/17 19:20:18;;;;;;;21.58;12.50;;;;;;;;;;5033767;28;20085;-81
2022/12/17 19:22:45;;;;;;;19.95;12.00;;;;;;;;;;5033371;28;20099;-81
2022/12/17 19:25:13;;;;;;;24.05;13.00;;;;;;;;;;5033457;28;20140;-81
2022/12/17 19:27:41;;;;;;;23.67;12.95;;;;;;;;;;5033679;28;20049;-81
2022/12/17 19:30:08;;;;;;;20.27;12.13;;;;;;;;;;5033095;28;20088;-81
2022/12/17 19:32:36;;;;;;;19.02;11.52;;;;;;;;;;5033212;28;20518;-81
2022/12/17 19:35:03;;;;;;;20.65;12.65;;;;;;;;;;5033263;28;20053;-81
2022/12/17 19:37:30;;;;;;;20.95;13.32;;;;;;;;;;5046660;28;20402;-81
2022/12/17 19:39:57;;;;;;;22.95;12.85;;;;;;;;;;5053154;28;20486;-81
2022/12/17 19:42:26;;;;;;;21.63;12.38;;;;;;;;;;4177522;28;10000375;-81
2022/12/17 19:44:53;;;;;;;18.90;12.35;;;;;;;;;;5061131;28;20052;-82
2022/12/17 19:47:21;;;;;;;21.77;12.85;;;;;;;;;;5040884;28;20132;-81
2022/12/17 19:49:48;;;;;;;21.33;12.90;;;;;;;;;;5033061;28;20053;-81
2022/12/17 19:52:15;;;;;;;22.23;13.18;;;;;;;;;;5032480;28;20056;-81
2022/12/17 19:54:42;;;;;;;20.88;12.95;;;;;;;;;;5033225;28;20053;-81
2022/12/17 19:57:09;;;;;;;21.40;13.30;;;;;;;;;;5032374;28;20041;-81
2022/12/17 19:59:37;;;;;;;23.98;13.20;;;;;;;;;;5032873;28;20144;-81
2022/12/17 20:02:04;;;;;;;20.50;12.57;;;;;;;;;;5032731;28;20049;-81
2022/12/17 20:04:31;;;;;;;22.98;13.60;;;;;;;;;;5032402;28;20059;-82
2022/12/17 20:06:59;;;;;;;21.20;12.88;;;;;;;;;;5041428;28;20103;-81
2022/12/17 20:09:26;;;;;;;21.95;13.45;;;;;;;;;;5053077;28;20090;-81
2022/12/17 20:11:53;;;;;;;23.55;13.88;;;;;;;;;;5052545;28;20096;-81
2022/12/17 20:14:21;;;;;;;21.65;13.43;;;;;;;;;;5052406;28;20127;-81
2022/12/17 20:16:49;;;;;;;23.02;13.90;;;;;;;;;;5052338;28;20132;-81
2022/12/17 20:19:17;;;;;;;21.80;13.40;;;12.20;53.80;;;;;;5033576;28;20063;-81
2022/12/17 20:21:45;;;;;;;21.30;12.93;;;;;;;;;;5032680;28;20050;-81
2022/12/17 20:24:12;;;;;;;22.50;13.50;;;;;;;;;;5032292;28;20164;-77
2022/12/17 20:26:39;;;;;;;25.15;14.00;;;;;;;;;;5034713;28;20049;-77
2022/12/17 20:29:07;;;;;;;23.73;14.18;;;;;;;;;;5033943;28;20486;-78
2022/12/17 20:31:34;;;;;;;22.15;13.50;;;;;;;;;;5034185;28;20352;-78
2022/12/17 20:34:02;;;;;;;22.17;13.82;;;;;;;;;;5033953;28;20049;-77
2022/12/17 20:36:30;;;;;;;22.50;13.50;;;;;;;;;;5039476;28;20041;-78
2022/12/17 20:38:57;;;;;;;25.30;14.02;;;;;;;;;;5054414;28;20055;-77
2022/12/17 20:41:24;;;;;;;23.85;13.70;;;;;;;;;;5054534;28;20156;-78
2022/12/17 20:43:51;;;;;;;23.13;13.95;;;;;;;;;;5054490;28;20446;-78
2022/12/17 20:46:18;;;;;;;21.45;13.27;;;;;;;;;;5053415;28;20405;-77
2022/12/17 20:48:46;;;;;;;23.40;13.73;;;;;;;;;;5045232;28;20056;-78
2022/12/17 20:51:15;;;;;;;23.10;13.95;;;12.30;54.30;;;;;;5033390;28;20136;-77
2022/12/17 20:53:42;;;;;;;22.67;13.43;;;;;;;;;;5034417;28;20053;-78
2022/12/17 20:56:10;;;;;;;24.85;14.05;;;12.20;55.40;;;;;;5033610;28;20053;-78
2022/12/17 20:58:37;;;;;;;24.65;14.45;;;;;;;;;;5033598;28;20146;-77
2022/12/17 21:01:04;;;;;;;24.15;14.60;;;;;;;;;;5033717;28;20059;-78
2022/12/17 21:03:31;;;;;;;23.80;14.13;;;;;;;;;;5044179;28;20057;-78
2022/12/17 21:06:04;;;;;;;23.10;13.70;;;;;;;;;;5053541;28;20049;-78
2022/12/17 21:08:33;;;;;;;26.35;14.90;;;;;;;;;;5053225;28;20077;-78
2022/12/17 21:11:00;;;;;;;24.63;14.52;;;;;;;;;;5037060;28;20052;-78
2022/12/17 21:13:30;;;;;;;23.55;13.95;;;;;;;;;;5031949;28;20057;-78
2022/12/17 21:15:57;;;;;;;21.10;13.60;;;;;;;;;;5033546;28;20140;-78
2022/12/17 21:18:24;;;;;;;25.45;14.52;;;;;;;;;;5033483;28;20068;-78
2022/12/17 21:20:55;;;;;;;25.80;14.77;;;;;;;;;;5033541;28;20497;-78
2022/12/17 21:23:22;;;;;;;23.73;14.65;;;;;;;;;;5033134;28;20402;-78
2022/12/17 21:25:51;;;;;;;23.60;14.38;;;;;;;;;;5001451;28;20067;-78
2022/12/17 21:28:18;;;;;;;23.95;14.68;;;;;;;;;;4772936;28;62183;-78
2022/12/17 21:30:45;;;;;;;25.23;14.63;;;;;;;;;;5008555;28;20041;-78
2022/12/17 21:33:12;;;;;;;24.08;14.88;;;;;;;;;;5016135;28;20103;-78
2022/12/17 21:35:40;;;;;;;23.48;14.45;;;;;;;;;;5016348;28;20046;-77
2022/12/17 21:38:07;;;;;;;24.27;14.38;;;;;;;;;;5015911;28;20049;-78
2022/12/17 21:40:35;;;;;;;21.85;13.38;;;;;;;;;;5015279;28;20144;-83
2022/12/17 21:43:03;;;;;;;24.17;15.23;;;;;;;;;;5013969;28;20057;-81
2022/12/17 21:45:35;;;;;;;24.15;14.57;;;;;;;;;;5013928;28;20128;-81
2022/12/17 21:48:02;;;;;;;24.08;14.18;;;;;;;;;;5022171;28;20679;-82
2022/12/17 21:50:29;;;;;;;25.10;15.30;;;;;;;;;;5013859;28;20053;-81
2022/12/17 21:52:56;;;;;;;22.33;14.00;;;;;;;;;;5014096;28;20117;-82
2022/12/17 21:55:23;;;;;;;22.98;13.93;;;;;;;;;;5015073;28;20061;-82
2022/12/17 21:57:50;;;;;;;25.27;15.05;;;;;;;;;;5014961;28;20137;-82
2022/12/17 22:00:19;;;;;;;26.50;15.27;;;;;;;;;;5030469;28;20143;-82
2022/12/17 22:02:46;;;;;;;24.20;15.13;;;;;;;;;;5034662;28;20055;-82
2022/12/17 22:05:13;;;;;;;25.63;15.57;;;;;;;;;;5016390;28;20129;-81
2022/12/17 22:07:40;;;;;;;25.90;16.08;;;;;;;;;;5014292;28;20045;-77
2022/12/17 22:10:08;;;;;;;24.38;14.70;;;11.50;56.40;;;;;;5031560;28;20140;-77
2022/12/17 22:15:21;;;;;;;26.95;15.50;;;11.50;54.50;;;;;;5014120;28;20073;-77
2022/12/17 22:17:48;;;;;;;25.10;15.65;;;;;;;;;;5014126;28;20141;-77
2022/12/17 22:20:16;;;;;;;24.55;15.13;;;;;;;;;;5013944;28;20060;-78
2022/12/17 22:22:43;;;;;;;25.83;16.75;;;;;;;;;;5013822;28;20053;-78
2022/12/17 22:25:11;;;;;;;28.95;16.00;;;;;;;;;;5013990;28;20045;-77
2022/12/17 22:27:38;;;;;;;25.50;15.25;;;;;;;;;;5014097;28;20121;-77
2022/12/17 22:33:01;;;;;;;24.80;15.65;;;;;;;;;;5013749;28;20084;-77
2022/12/17 22:35:28;;;;;;;24.73;15.32;;;;;;;;;;5013884;28;20106;-77
2022/12/17 22:37:55;;;;;;;25.98;15.73;;;;;;;;;;5030732;28;20746;-76
2022/12/17 22:40:22;;;;;;;26.95;16.00;;;;;;;;;;5033877;28;20067;-77
2022/12/17 22:45:34;;;;;;;26.80;15.25;;;;;;;;;;5051112;28;20048;-77
2022/12/17 22:48:02;;;;;;;24.08;15.00;;;11.50;56.50;;;;;;5018528;28;20053;-76
2022/12/17 22:50:29;;;;;;;26.40;16.42;;;;;;;;;;5013665;28;20156;-77
2022/12/17 22:52:56;;;;;;;24.92;16.05;;;;;;;;;;5016531;28;20079;-77
2022/12/17 22:55:23;;;;;;;27.20;15.75;;;;;;;;;;5023654;28;20049;-77
2022/12/17 22:57:50;;;;;;;24.92;16.20;;;;;;;;;;5037107;28;20051;-77
2022/12/17 23:00:18;;;;;;;27.63;16.67;;;;;;;;;;5052665;28;20044;-77
2022/12/17 23:02:45;;;;;;;25.83;16.65;;;;;;;;;;5017344;28;20050;-77
2022/12/17 23:05:14;;;;;;;25.40;15.70;;;;;;;;;;5017338;28;20554;-78
2022/12/17 23:07:41;;;;;;;25.92;16.13;;;;;;;;;;5017390;28;20056;-77
2022/12/17 23:10:08;;;;;;;27.52;16.88;;;;;;;;;;5017457;28;20067;-77
2022/12/17 23:12:51;;;;;;;27.02;16.35;;;;;;;;;;5017102;28;20053;-77
2022/12/17 23:15:18;;;;;;;27.27;16.55;;;;;;;;;;5016482;28;20045;-77
2022/12/17 23:17:45;;;;;;;23.98;15.65;;;;;;;;;;5017111;28;20055;-77
2022/12/17 23:20:13;;;;;;;30.05;17.75;;;11.40;56.40;;;;;;5017191;28;20055;-77
2022/12/17 23:22:41;;;;;;;26.67;16.60;;;;;;;;;;5016839;28;20061;-79
2022/12/17 23:25:08;;;;;;;24.92;14.98;;;;;;;;;;5017087;28;20056;-77
2022/12/17 23:27:35;;;;;;;26.73;15.88;;;;;;;;;;5016757;28;20049;-77
2022/12/17 23:30:02;;;;;;;27.73;16.33;;;;;;;;;;5016832;28;20049;-77
2022/12/17 23:32:29;;;;;;;27.90;16.40;;;;;;;;;;5016673;28;20049;-77
2022/12/17 23:34:56;;;;;;;29.75;17.13;;;;;;;;;;5017000;28;20049;-77
2022/12/17 23:37:25;;;;;;;25.92;15.80;;;;;;;;;;5016022;28;20053;-78
2022/12/17 23:39:52;;;;;;;26.05;15.70;;;;;;;;;;5016842;28;20136;-77
2022/12/17 23:42:19;;;;;;;26.63;15.77;;;;;;;;;;5033990;28;20144;-77
2022/12/17 23:44:46;;;;;;;29.02;17.20;;;;;;;;;;5016647;28;20057;-77
2022/12/17 23:47:13;;;;;;;26.52;16.67;;;;;;;;;;5016557;28;20049;-76
2022/12/17 23:49:40;;;;;;;25.90;15.88;;;;;;;;;;5016652;28;20487;-77
2022/12/17 23:52:07;;;;;;;27.80;16.80;;;;;;;;;;5026469;28;20528;-78
2022/12/17 23:54:36;;;;;;;27.67;15.52;;;;;;;;;;5036188;28;20468;-77
2022/12/17 23:57:03;;;;;;;24.02;15.32;;;;;;;;;;5022309;28;20053;-77
2022/12/17 23:59:30;;;;;;;27.27;16.05;;;;;;;;;;5016309;28;20053;-77
